createdAt,value
2019-04-26T00:00:07.514Z,99.99
2019-04-26T00:01:07.546Z,99.52
2019-04-26T00:02:07.427Z,99.42
2019-04-26T00:03:06.626Z,99.99
2019-04-26T00:04:07.668Z,99.99
2019-04-26T00:05:06.689Z,99.99
2019-04-26T00:06:06.719Z,99.99
2019-04-26T00:07:06.749Z,99.99
2019-04-26T00:08:06.780Z,99.99
2019-04-26T00:09:06.810Z,99.99
2019-04-26T00:10:06.844Z,99.99
2019-04-26T00:11:06.876Z,99.99
2019-04-26T00:12:06.902Z,99.99
2019-04-26T00:13:06.993Z,99.99
2019-04-26T00:14:32.654Z,99.99
2019-04-26T00:15:07.010Z,99.99
2019-04-26T00:16:07.041Z,99.99
2019-04-26T00:17:07.074Z,99.99
2019-04-26T00:18:07.103Z,99.99
2019-04-26T00:19:07.135Z,99.99
2019-04-26T00:20:07.164Z,99.99
2019-04-26T00:21:07.199Z,99.99
2019-04-26T00:22:07.227Z,99.99
2019-04-26T00:23:07.257Z,99.99
2019-04-26T00:24:07.289Z,99.99
2019-04-26T00:25:07.321Z,99.99
2019-04-26T00:26:07.350Z,99.99
2019-04-26T00:27:07.382Z,99.99
2019-04-26T00:28:07.415Z,99.99
2019-04-26T00:29:07.443Z,99.99
2019-04-26T00:30:07.471Z,99.99
2019-04-26T00:31:07.505Z,99.99
2019-04-26T00:32:07.534Z,99.99
2019-04-26T00:33:07.670Z,99.99
2019-04-26T00:34:07.595Z,99.99
2019-04-26T00:35:07.627Z,99.99
2019-04-26T00:36:07.658Z,99.99
2019-04-26T00:37:07.689Z,99.99
2019-04-26T00:38:07.719Z,99.99
2019-04-26T00:39:07.751Z,99.99
2019-04-26T00:40:07.780Z,99.99
2019-04-26T00:41:07.812Z,99.99
2019-04-26T00:42:07.843Z,99.99
2019-04-26T00:43:07.874Z,99.99
2019-04-26T00:44:07.903Z,99.99
2019-04-26T00:45:07.935Z,98.71
2019-04-26T00:46:07.968Z,97.75
2019-04-26T00:47:07.998Z,96.22
2019-04-26T00:48:08.025Z,96.89
2019-04-26T00:49:08.061Z,96.32
2019-04-26T00:50:08.088Z,95.75
2019-04-26T00:51:08.120Z,95.94
2019-04-26T00:52:08.149Z,95.94
2019-04-26T00:53:08.167Z,96.13
2019-04-26T00:54:08.211Z,96.70
2019-04-26T00:55:08.242Z,96.22
2019-04-26T00:56:08.260Z,95.94
2019-04-26T00:57:08.303Z,95.27
2019-04-26T00:58:08.324Z,96.13
2019-04-26T00:59:08.368Z,95.56
2019-04-26T01:00:08.382Z,95.36
2019-04-26T01:01:08.426Z,95.56
2019-04-26T01:02:08.456Z,95.56
2019-04-26T01:03:08.488Z,95.17
2019-04-26T01:04:08.502Z,95.89
2019-04-26T01:05:08.535Z,95.79
2019-04-26T01:06:08.570Z,96.27
2019-04-26T01:07:08.596Z,96.17
2019-04-26T01:08:08.627Z,95.98
2019-04-26T01:09:08.660Z,96.22
2019-04-26T01:10:08.688Z,96.70
2019-04-26T01:11:08.719Z,95.84
2019-04-26T01:12:08.749Z,96.13
2019-04-26T01:13:08.780Z,96.22
2019-04-26T01:14:08.811Z,96.13
2019-04-26T01:15:08.842Z,94.79
2019-04-26T01:16:08.874Z,95.17
2019-04-26T01:17:08.902Z,95.08
2019-04-26T01:18:08.935Z,94.31
2019-04-26T01:19:08.966Z,95.36
2019-04-26T01:20:08.998Z,94.70
2019-04-26T01:21:09.025Z,94.22
2019-04-26T01:22:09.056Z,94.60
2019-04-26T01:23:09.088Z,94.70
2019-04-26T01:24:09.118Z,95.27
2019-04-26T01:25:09.148Z,95.08
2019-04-26T01:26:09.179Z,95.56
2019-04-26T01:27:09.211Z,95.08
2019-04-26T01:28:09.240Z,95.36
2019-04-26T01:29:09.271Z,95.17
2019-04-26T01:30:09.303Z,95.27
2019-04-26T01:31:09.332Z,95.08
2019-04-26T01:32:09.366Z,95.46
2019-04-26T01:33:09.396Z,94.98
2019-04-26T01:34:09.440Z,94.70
2019-04-26T01:35:28.676Z,95.17
2019-04-26T01:36:13.094Z,94.31
2019-04-26T01:37:09.531Z,94.98
2019-04-26T01:38:09.563Z,95.56
2019-04-26T01:39:09.592Z,94.70
2019-04-26T01:40:09.625Z,94.60
2019-04-26T01:41:09.639Z,94.89
2019-04-26T01:42:09.684Z,94.70
2019-04-26T01:43:09.704Z,95.65
2019-04-26T01:44:09.733Z,95.94
2019-04-26T01:45:09.762Z,95.17
2019-04-26T01:46:09.792Z,95.27
2019-04-26T01:47:09.822Z,95.17
2019-04-26T01:48:09.857Z,95.56
2019-04-26T01:49:09.887Z,95.08
2019-04-26T01:50:09.916Z,94.70
2019-04-26T01:51:09.946Z,94.70
2019-04-26T01:52:09.978Z,94.70
2019-04-26T01:53:10.008Z,94.41
2019-04-26T01:54:10.040Z,94.51
2019-04-26T01:55:10.069Z,95.27
2019-04-26T01:56:10.100Z,94.70
2019-04-26T01:57:10.131Z,94.51
2019-04-26T01:58:10.161Z,93.93
2019-04-26T01:59:10.194Z,95.08
2019-04-26T02:00:10.222Z,94.89
2019-04-26T02:01:10.251Z,94.79
2019-04-26T02:02:10.283Z,95.08
2019-04-26T02:03:10.364Z,95.27
2019-04-26T02:04:10.342Z,95.36
2019-04-26T02:05:10.374Z,95.27
2019-04-26T02:06:10.405Z,95.84
2019-04-26T02:07:10.436Z,96.03
2019-04-26T02:08:10.465Z,95.17
2019-04-26T02:09:10.760Z,95.36
2019-04-26T02:10:10.541Z,95.36
2019-04-26T02:11:10.571Z,94.41
2019-04-26T02:12:10.601Z,95.27
2019-04-26T02:13:10.633Z,95.94
2019-04-26T02:14:10.663Z,95.94
2019-04-26T02:15:10.693Z,96.32
2019-04-26T02:16:10.726Z,96.32
2019-04-26T02:17:10.754Z,96.03
2019-04-26T02:18:10.784Z,96.22
2019-04-26T02:19:10.815Z,95.94
2019-04-26T02:20:10.845Z,95.27
2019-04-26T02:21:10.876Z,95.65
2019-04-26T02:22:10.907Z,95.94
2019-04-26T02:23:10.937Z,95.84
2019-04-26T02:24:10.967Z,95.94
2019-04-26T02:25:10.997Z,95.84
2019-04-26T02:26:11.030Z,96.03
2019-04-26T02:27:11.058Z,96.32
2019-04-26T02:28:11.088Z,96.32
2019-04-26T02:29:11.121Z,97.37
2019-04-26T02:30:11.150Z,98.23
2019-04-26T02:31:11.182Z,96.98
2019-04-26T02:32:11.212Z,96.66
2019-04-26T02:33:11.241Z,96.94
2019-04-26T02:34:11.272Z,97.32
2019-04-26T02:35:11.302Z,97.89
2019-04-26T02:36:11.334Z,98.56
2019-04-26T02:37:11.446Z,97.89
2019-04-26T02:38:11.391Z,97.80
2019-04-26T02:39:11.425Z,97.89
2019-04-26T02:40:11.454Z,97.89
2019-04-26T02:41:11.484Z,97.80
2019-04-26T02:42:11.530Z,97.51
2019-04-26T02:43:11.546Z,98.47
2019-04-26T02:44:11.575Z,97.22
2019-04-26T02:45:11.607Z,96.75
2019-04-26T02:46:11.638Z,96.94
2019-04-26T02:47:11.665Z,97.71
2019-04-26T02:48:11.695Z,98.56
2019-04-26T02:49:11.727Z,98.70
2019-04-26T02:50:11.758Z,98.99
2019-04-26T02:51:11.787Z,99.27
2019-04-26T02:52:11.924Z,98.70
2019-04-26T02:53:11.848Z,99.27
2019-04-26T02:54:11.882Z,99.95
2019-04-26T02:55:11.909Z,99.75
2019-04-26T02:56:11.939Z,99.99
2019-04-26T02:57:11.968Z,99.99
2019-04-26T02:58:12.000Z,99.99
2019-04-26T02:59:12.030Z,99.99
2019-04-26T03:00:12.057Z,99.99
2019-04-26T03:01:12.091Z,99.99
2019-04-26T03:02:12.123Z,99.99
2019-04-26T03:03:12.156Z,99.99
2019-04-26T03:04:12.184Z,99.99
2019-04-26T03:05:12.209Z,99.99
2019-04-26T03:06:12.242Z,99.99
2019-04-26T03:07:12.292Z,99.99
2019-04-26T03:08:12.301Z,99.99
2019-04-26T03:09:12.332Z,99.99
2019-04-26T03:10:12.362Z,99.99
2019-04-26T03:11:12.394Z,99.99
2019-04-26T03:12:12.472Z,99.99
2019-04-26T03:13:12.452Z,99.99
2019-04-26T03:14:12.483Z,99.99
2019-04-26T03:15:14.304Z,99.99
2019-04-26T03:16:12.545Z,99.99
2019-04-26T03:17:12.577Z,99.99
2019-04-26T03:18:12.603Z,99.99
2019-04-26T03:19:12.635Z,99.99
2019-04-26T03:20:12.664Z,99.99
2019-04-26T03:21:12.696Z,99.99
2019-04-26T03:22:12.727Z,99.99
2019-04-26T03:23:12.755Z,99.99
2019-04-26T03:24:12.787Z,99.99
2019-04-26T03:25:12.818Z,99.99
2019-04-26T03:26:12.847Z,99.99
2019-04-26T03:27:12.881Z,99.99
2019-04-26T03:28:12.908Z,99.99
2019-04-26T03:29:12.952Z,99.99
2019-04-26T03:30:22.891Z,99.99
2019-04-26T03:31:12.999Z,99.99
2019-04-26T03:32:16.708Z,99.99
2019-04-26T03:33:13.148Z,99.99
2019-04-26T03:34:13.295Z,99.99
2019-04-26T03:35:13.165Z,99.99
2019-04-26T03:36:13.157Z,99.99
2019-04-26T03:37:20.871Z,99.99
2019-04-26T03:38:13.209Z,99.99
2019-04-26T03:39:13.222Z,99.99
2019-04-26T03:40:13.268Z,99.99
2019-04-26T03:41:13.303Z,99.99
2019-04-26T03:42:13.323Z,99.99
2019-04-26T03:43:13.348Z,99.99
2019-04-26T03:44:13.371Z,99.99
2019-04-26T03:45:13.413Z,99.99
2019-04-26T03:46:13.449Z,99.99
2019-04-26T03:47:13.464Z,99.99
2019-04-26T03:48:13.495Z,99.99
2019-04-26T03:49:13.523Z,99.99
2019-04-26T03:50:13.579Z,99.99
2019-04-26T03:51:13.583Z,99.99
2019-04-26T03:52:13.614Z,99.99
2019-04-26T03:53:13.649Z,99.99
2019-04-26T03:54:13.671Z,99.99
2019-04-26T03:55:13.701Z,99.99
2019-04-26T03:56:13.732Z,99.99
2019-04-26T03:57:14.028Z,99.99
2019-04-26T03:58:13.797Z,99.99
2019-04-26T03:59:13.823Z,99.99
2019-04-26T04:00:13.851Z,99.99
2019-04-26T04:01:13.880Z,99.99
2019-04-26T04:02:13.915Z,99.99
2019-04-26T04:03:13.943Z,99.99
2019-04-26T04:04:13.970Z,99.99
2019-04-26T04:05:14.002Z,99.99
2019-04-26T04:06:14.038Z,99.99
2019-04-26T04:07:14.059Z,99.99
2019-04-26T04:08:14.089Z,99.99
2019-04-26T04:09:17.854Z,99.99
2019-04-26T04:10:14.149Z,99.99
2019-04-26T04:11:14.182Z,99.99
2019-04-26T04:12:14.234Z,99.99
2019-04-26T04:13:14.240Z,99.99
2019-04-26T04:14:14.445Z,99.99
2019-04-26T04:15:14.299Z,99.99
2019-04-26T04:16:14.328Z,99.99
2019-04-26T04:17:14.361Z,99.99
2019-04-26T04:18:14.388Z,99.99
2019-04-26T04:19:14.429Z,99.99
2019-04-26T04:20:14.450Z,99.99
2019-04-26T04:21:14.478Z,99.99
2019-04-26T04:22:14.506Z,99.99
2019-04-26T04:23:14.538Z,99.99
2019-04-26T04:24:14.570Z,99.99
2019-04-26T04:28:14.685Z,99.99
2019-04-26T04:29:14.714Z,99.99
2019-04-26T04:30:17.785Z,99.99
2019-04-26T04:31:16.612Z,99.99
2019-04-26T04:32:15.215Z,99.99
2019-04-26T04:35:15.298Z,99.99
2019-04-26T04:37:15.157Z,99.99
2019-04-26T04:38:15.186Z,99.99
2019-04-26T04:39:15.014Z,99.99
2019-04-26T04:46:16.153Z,99.99
2019-04-26T04:47:24.411Z,99.99
2019-04-26T04:48:15.484Z,99.99
2019-04-26T04:50:15.342Z,99.99
2019-04-26T04:53:15.429Z,99.99
2019-04-26T04:54:15.471Z,99.99
2019-04-26T04:55:15.491Z,99.99
2019-04-26T04:56:15.526Z,99.99
2019-04-26T04:57:15.549Z,99.99
2019-04-26T04:58:15.579Z,99.99
2019-04-26T04:59:15.617Z,99.99
2019-04-26T05:00:15.637Z,99.99
2019-04-26T05:01:15.667Z,99.99
2019-04-26T05:02:15.697Z,99.99
2019-04-26T05:03:15.725Z,99.99
2019-04-26T05:04:15.755Z,99.99
2019-04-26T05:05:15.786Z,99.99
2019-04-26T05:06:15.814Z,99.99
2019-04-26T05:07:15.845Z,99.99
2019-04-26T05:09:15.903Z,99.99
2019-04-26T05:10:15.932Z,99.99
2019-04-26T05:11:15.962Z,99.99
2019-04-26T05:12:15.991Z,99.99
2019-04-26T05:13:16.022Z,99.99
2019-04-26T05:14:16.053Z,99.99
2019-04-26T05:15:16.081Z,99.99
2019-04-26T05:16:16.110Z,99.99
2019-04-26T05:17:16.139Z,99.99
2019-04-26T05:18:16.169Z,99.99
2019-04-26T05:19:16.199Z,99.99
2019-04-26T05:20:16.227Z,99.99
2019-04-26T05:21:16.257Z,99.99
2019-04-26T05:22:16.287Z,99.99
2019-04-26T05:23:16.317Z,99.99
2019-04-26T05:24:16.345Z,99.99
2019-04-26T05:25:16.377Z,99.99
2019-04-26T05:26:16.425Z,99.99
2019-04-26T05:27:16.443Z,99.99
2019-04-26T05:28:16.493Z,99.99
2019-04-26T05:29:16.493Z,99.99
2019-04-26T05:30:16.523Z,99.99
2019-04-26T05:31:16.553Z,99.99
2019-04-26T05:32:16.584Z,99.99
2019-04-26T05:33:16.639Z,99.99
2019-04-26T05:34:16.641Z,99.99
2019-04-26T05:35:16.672Z,99.99
2019-04-26T05:36:16.702Z,99.99
2019-04-26T05:37:16.730Z,99.99
2019-04-26T05:38:18.534Z,99.99
2019-04-26T05:39:16.794Z,99.99
2019-04-26T05:40:16.820Z,99.99
2019-04-26T05:41:16.850Z,99.99
2019-04-26T05:42:16.879Z,99.99
2019-04-26T05:43:16.908Z,99.99
2019-04-26T05:44:17.139Z,99.99
2019-04-26T05:45:16.968Z,99.99
2019-04-26T05:46:16.996Z,99.99
2019-04-26T05:47:17.026Z,99.99
2019-04-26T05:48:17.056Z,99.99
2019-04-26T05:49:17.085Z,99.99
2019-04-26T05:50:17.125Z,99.99
2019-04-26T05:51:17.143Z,99.99
2019-04-26T05:52:17.173Z,99.99
2019-04-26T05:53:17.207Z,99.99
2019-04-26T05:54:17.233Z,99.99
2019-04-26T05:55:17.262Z,99.99
2019-04-26T05:56:17.291Z,99.99
2019-04-26T05:57:17.328Z,99.99
2019-04-26T05:58:17.349Z,99.99
2019-04-26T05:59:17.380Z,99.99
2019-04-26T06:00:17.408Z,99.99
2019-04-26T06:01:17.438Z,99.99
2019-04-26T06:02:17.468Z,99.99
2019-04-26T06:03:17.498Z,99.99
2019-04-26T06:04:17.527Z,99.99
2019-04-26T06:05:17.559Z,99.99
2019-04-26T06:06:17.586Z,99.99
2019-04-26T06:07:17.618Z,99.99
2019-04-26T06:08:17.644Z,99.99
2019-04-26T06:09:17.674Z,99.99
2019-04-26T06:10:17.717Z,99.99
2019-04-26T06:11:17.748Z,99.99
2019-04-26T06:12:17.790Z,99.99
2019-04-26T06:13:17.793Z,99.99
2019-04-26T06:14:17.820Z,99.99
2019-04-26T06:15:17.850Z,99.99
2019-04-26T06:16:17.879Z,99.99
2019-04-26T06:17:17.910Z,99.99
2019-04-26T06:18:17.940Z,99.99
2019-04-26T06:19:17.970Z,99.99
2019-04-26T06:20:22.991Z,99.99
2019-04-26T06:21:18.028Z,99.99
2019-04-26T06:22:18.057Z,99.99
2019-04-26T06:23:18.088Z,99.99
2019-04-26T06:24:18.115Z,99.99
2019-04-26T06:25:18.147Z,99.99
2019-04-26T06:26:18.176Z,99.99
2019-04-26T06:27:18.205Z,99.99
2019-04-26T06:28:18.233Z,99.99
2019-04-26T06:29:18.263Z,99.99
2019-04-26T06:30:18.296Z,99.99
2019-04-26T06:31:18.324Z,99.99
2019-04-26T06:32:18.381Z,99.99
2019-04-26T06:33:18.382Z,99.99
2019-04-26T06:34:18.412Z,99.99
2019-04-26T06:35:20.119Z,99.99
2019-04-26T06:36:18.485Z,99.99
2019-04-26T06:37:18.501Z,99.99
2019-04-26T06:38:18.531Z,99.99
2019-04-26T06:39:18.561Z,99.99
2019-04-26T06:40:18.594Z,99.99
2019-04-26T06:41:21.383Z,99.99
2019-04-26T06:42:18.650Z,99.99
2019-04-26T06:43:18.681Z,99.99
2019-04-26T06:44:18.709Z,99.99
2019-04-26T06:45:18.743Z,99.99
2019-04-26T06:46:18.769Z,99.99
2019-04-26T06:47:18.799Z,99.99
2019-04-26T06:48:18.829Z,99.99
2019-04-26T06:49:18.862Z,99.99
2019-04-26T06:50:18.888Z,99.99
2019-04-26T06:51:24.500Z,99.99
2019-04-26T06:52:18.947Z,99.99
2019-04-26T06:53:18.980Z,99.99
2019-04-26T06:54:19.079Z,99.99
2019-04-26T06:55:19.040Z,99.99
2019-04-26T06:56:19.140Z,99.99
2019-04-26T06:57:19.098Z,99.99
2019-04-26T06:58:19.128Z,99.99
2019-04-26T06:59:19.165Z,99.99
2019-04-26T07:00:19.199Z,99.99
2019-04-26T07:01:19.218Z,99.99
2019-04-26T07:02:19.247Z,99.99
2019-04-26T07:03:19.277Z,99.99
2019-04-26T07:04:19.309Z,99.99
2019-04-26T07:05:19.336Z,99.99
2019-04-26T07:06:19.369Z,99.99
2019-04-26T07:07:19.397Z,99.99
2019-04-26T07:08:19.426Z,99.99
2019-04-26T07:09:19.455Z,99.99
2019-04-26T07:10:19.488Z,99.99
2019-04-26T07:11:19.516Z,99.99
2019-04-26T07:12:19.545Z,99.99
2019-04-26T07:13:19.576Z,99.99
2019-04-26T07:14:19.615Z,99.99
2019-04-26T07:15:28.474Z,99.99
2019-04-26T07:16:23.171Z,99.99
2019-04-26T07:17:19.700Z,99.99
2019-04-26T07:18:19.725Z,99.99
2019-04-26T07:19:19.757Z,99.99
2019-04-26T07:20:19.785Z,99.99
2019-04-26T07:21:19.815Z,99.99
2019-04-26T07:22:19.843Z,99.99
2019-04-26T07:23:19.874Z,99.99
2019-04-26T07:24:19.903Z,99.99
2019-04-26T07:25:19.935Z,99.99
2019-04-26T07:26:19.964Z,99.99
2019-04-26T07:27:19.995Z,99.99
2019-04-26T07:28:20.070Z,99.99
2019-04-26T07:29:20.054Z,99.99
2019-04-26T07:30:21.909Z,99.99
2019-04-26T07:31:20.116Z,99.99
2019-04-26T07:32:20.183Z,99.99
2019-04-26T07:33:20.173Z,99.99
2019-04-26T07:34:20.204Z,99.99
2019-04-26T07:35:20.325Z,99.99
2019-04-26T07:36:20.268Z,99.99
2019-04-26T07:37:20.303Z,99.99
2019-04-26T07:38:20.367Z,99.99
2019-04-26T07:39:20.871Z,99.99
2019-04-26T07:40:20.385Z,99.99
2019-04-26T07:41:20.417Z,99.99
2019-04-26T07:42:20.446Z,99.99
2019-04-26T07:43:20.475Z,99.99
2019-04-26T07:44:20.505Z,99.99
2019-04-26T07:45:20.535Z,99.99
2019-04-26T07:46:20.565Z,99.99
2019-04-26T07:47:20.615Z,99.99
2019-04-26T07:48:20.641Z,99.99
2019-04-26T07:49:20.658Z,99.99
2019-04-26T07:50:20.686Z,99.99
2019-04-26T07:51:20.717Z,99.99
2019-04-26T07:52:20.749Z,99.99
2019-04-26T07:53:20.776Z,99.99
2019-04-26T07:54:20.808Z,99.99
2019-04-26T07:55:20.839Z,99.99
2019-04-26T07:56:20.866Z,99.99
2019-04-26T07:57:20.897Z,99.99
2019-04-26T07:58:20.929Z,99.99
2019-04-26T07:59:20.959Z,99.99
2019-04-26T08:00:20.988Z,99.99
2019-04-26T08:01:21.019Z,99.99
2019-04-26T08:02:21.054Z,99.99
2019-04-26T08:03:21.080Z,99.99
2019-04-26T08:04:21.109Z,99.99
2019-04-26T08:05:21.138Z,99.99
2019-04-26T08:06:21.173Z,99.99
2019-04-26T08:07:21.200Z,99.99
2019-04-26T08:08:21.229Z,99.99
2019-04-26T08:09:26.916Z,99.99
2019-04-26T08:10:21.290Z,99.99
2019-04-26T08:11:21.322Z,99.99
2019-04-26T08:12:21.356Z,99.99
2019-04-26T08:13:21.381Z,99.99
2019-04-26T08:14:21.542Z,99.99
2019-04-26T08:15:21.443Z,99.99
2019-04-26T08:16:21.487Z,99.99
2019-04-26T08:17:21.503Z,99.99
2019-04-26T08:18:21.535Z,99.99
2019-04-26T08:19:21.569Z,99.99
2019-04-26T08:20:21.594Z,99.99
2019-04-26T08:21:21.626Z,99.99
2019-04-26T08:22:24.694Z,99.99
2019-04-26T08:23:39.316Z,99.99
2019-04-26T08:24:21.724Z,99.99
2019-04-26T08:25:21.750Z,99.99
2019-04-26T08:26:21.779Z,99.99
2019-04-26T08:27:24.000Z,99.99
2019-04-26T08:28:21.847Z,99.99
2019-04-26T08:29:21.872Z,99.99
2019-04-26T08:30:22.885Z,99.99
2019-04-26T08:31:24.325Z,99.99
2019-04-26T08:32:21.969Z,99.99
2019-04-26T08:33:21.997Z,99.99
2019-04-26T08:34:28.909Z,99.99
2019-04-26T08:35:22.066Z,99.99
2019-04-26T08:36:23.306Z,99.99
2019-04-26T08:37:22.151Z,99.99
2019-04-26T08:38:22.888Z,99.99
2019-04-26T08:39:24.599Z,99.99
2019-04-26T08:40:30.091Z,99.99
2019-04-26T08:41:22.246Z,99.99
2019-04-26T08:42:24.907Z,99.99
2019-04-26T08:43:22.640Z,99.99
2019-04-26T08:44:22.335Z,99.99
2019-04-26T08:45:22.366Z,99.99
2019-04-26T08:46:22.398Z,99.99
2019-04-26T08:47:26.107Z,99.99
2019-04-26T08:48:27.622Z,99.99
2019-04-26T08:49:22.523Z,99.99
2019-04-26T08:50:22.564Z,99.99
2019-04-26T08:51:22.553Z,99.99
2019-04-26T08:52:22.598Z,99.99
2019-04-26T08:53:22.644Z,99.99
2019-04-26T08:54:22.679Z,99.99
2019-04-26T08:55:22.712Z,99.99
2019-04-26T08:56:22.721Z,99.99
2019-04-26T08:57:22.735Z,99.99
2019-04-26T08:58:22.787Z,99.99
2019-04-26T08:59:22.830Z,99.99
2019-04-26T09:00:22.862Z,99.99
2019-04-26T09:01:22.864Z,99.99
2019-04-26T09:02:22.917Z,99.99
2019-04-26T09:03:22.928Z,99.99
2019-04-26T09:04:22.982Z,99.99
2019-04-26T09:05:22.989Z,99.99
2019-04-26T09:06:23.107Z,99.99
2019-04-26T09:07:23.073Z,99.99
2019-04-26T09:08:23.073Z,99.99
2019-04-26T09:09:23.107Z,99.99
2019-04-26T09:10:23.135Z,99.99
2019-04-26T09:11:29.969Z,99.99
2019-04-26T09:12:23.669Z,99.99
2019-04-26T09:13:23.229Z,99.99
2019-04-26T09:14:23.262Z,99.99
2019-04-26T09:15:23.292Z,99.99
2019-04-26T09:16:23.371Z,99.99
2019-04-26T09:17:23.353Z,99.99
2019-04-26T09:18:23.387Z,99.99
2019-04-26T09:19:26.180Z,99.99
2019-04-26T09:20:29.726Z,99.99
2019-04-26T09:21:23.477Z,99.99
2019-04-26T09:22:26.470Z,99.99
2019-04-26T09:23:23.540Z,99.99
2019-04-26T09:24:25.063Z,99.99
2019-04-26T09:25:23.603Z,99.99
2019-04-26T09:26:23.695Z,99.99
2019-04-26T09:27:23.665Z,99.99
2019-04-26T09:28:23.697Z,99.99
2019-04-26T09:29:26.272Z,99.99
2019-04-26T09:30:33.697Z,99.99
2019-04-26T09:31:23.791Z,99.99
2019-04-26T09:32:24.174Z,99.99
2019-04-26T09:33:23.853Z,99.99
2019-04-26T09:34:23.883Z,99.99
2019-04-26T09:35:23.915Z,99.99
2019-04-26T09:36:23.945Z,99.99
2019-04-26T09:37:23.978Z,99.99
2019-04-26T09:38:24.011Z,99.99
2019-04-26T09:39:24.041Z,99.99
2019-04-26T09:40:24.075Z,99.99
2019-04-26T09:41:26.480Z,99.99
2019-04-26T09:42:24.134Z,99.99
2019-04-26T09:43:24.166Z,99.99
2019-04-26T09:44:24.199Z,99.99
2019-04-26T09:45:24.230Z,99.99
2019-04-26T09:46:24.261Z,99.99
2019-04-26T09:47:24.293Z,99.99
2019-04-26T09:48:24.325Z,99.99
2019-04-26T09:49:24.356Z,99.99
2019-04-26T09:50:24.388Z,99.99
2019-04-26T09:51:24.472Z,99.99
2019-04-26T09:52:24.451Z,99.99
2019-04-26T09:53:24.493Z,99.99
2019-04-26T09:55:34.735Z,99.99
2019-04-26T09:59:24.675Z,99.99
2019-04-26T10:00:24.708Z,99.99
2019-04-26T10:01:25.973Z,99.99
2019-04-26T10:02:24.771Z,99.99
2019-04-26T10:03:24.804Z,99.99
2019-04-26T10:04:24.833Z,99.99
2019-04-26T10:05:24.866Z,99.99
2019-04-26T10:06:26.175Z,99.99
2019-04-26T10:07:24.930Z,99.99
2019-04-26T10:08:24.961Z,99.99
2019-04-26T10:09:24.993Z,99.99
2019-04-26T10:10:25.027Z,99.99
2019-04-26T10:12:25.087Z,99.99
2019-04-26T10:15:11.331Z,99.99
2019-04-26T10:16:07.730Z,99.99
2019-04-26T10:17:07.763Z,99.99
2019-04-26T10:18:08.269Z,99.99
2019-04-26T10:19:07.876Z,99.99
2019-04-26T10:20:07.858Z,99.99
2019-04-26T10:21:07.887Z,99.99
2019-04-26T10:22:07.918Z,99.99
2019-04-26T10:23:07.951Z,99.99
2019-04-26T10:24:08.496Z,99.99
2019-04-26T10:25:16.076Z,99.99
2019-04-26T10:26:08.045Z,99.99
2019-04-26T10:27:08.075Z,99.99
2019-04-26T10:28:11.811Z,99.99
2019-04-26T10:29:08.141Z,99.99
2019-04-26T10:30:09.525Z,99.99
2019-04-26T10:31:08.201Z,99.99
2019-04-26T10:32:08.233Z,99.99
2019-04-26T10:33:08.265Z,99.99
2019-04-26T10:34:11.859Z,99.99
2019-04-26T10:35:08.327Z,99.99
2019-04-26T10:36:08.359Z,99.99
2019-04-26T10:37:08.391Z,99.99
2019-04-26T10:38:08.421Z,99.99
2019-04-26T10:39:08.454Z,99.99
2019-04-26T10:40:08.484Z,99.99
2019-04-26T10:41:08.516Z,99.99
2019-04-26T10:42:08.553Z,99.99
2019-04-26T10:43:08.663Z,99.99
2019-04-26T10:44:08.611Z,99.99
2019-04-26T10:45:10.502Z,99.99
2019-04-26T10:46:08.673Z,99.99
2019-04-26T10:47:08.704Z,99.99
2019-04-26T10:48:09.669Z,99.99
2019-04-26T10:49:11.992Z,99.99
2019-04-26T10:50:08.798Z,99.99
2019-04-26T10:51:08.959Z,99.99
2019-04-26T10:52:11.928Z,99.99
2019-04-26T10:53:08.894Z,99.99
2019-04-26T10:54:08.925Z,99.99
2019-04-26T10:55:12.206Z,99.99
2019-04-26T10:56:09.046Z,99.99
2019-04-26T10:57:09.020Z,99.99
2019-04-26T10:58:09.049Z,99.99
2019-04-26T10:59:09.783Z,99.99
2019-04-26T11:00:09.112Z,99.99
2019-04-26T11:01:09.146Z,99.99
2019-04-26T11:02:09.174Z,99.99
2019-04-26T11:03:09.207Z,99.99
2019-04-26T11:04:09.238Z,99.99
2019-04-26T11:05:11.618Z,99.99
2019-04-26T11:06:09.307Z,99.99
2019-04-26T11:07:09.333Z,99.99
2019-04-26T11:08:09.364Z,99.99
2019-04-26T11:09:09.399Z,99.99
2019-04-26T11:10:09.432Z,99.99
2019-04-26T11:11:09.460Z,99.99
2019-04-26T11:12:09.493Z,99.99
2019-04-26T11:13:09.524Z,99.99
2019-04-26T11:14:09.553Z,99.99
2019-04-26T11:15:09.586Z,99.99
2019-04-26T11:16:09.618Z,99.99
2019-04-26T11:17:11.615Z,99.99
2019-04-26T11:18:09.681Z,99.76
2019-04-26T11:19:09.713Z,98.90
2019-04-26T11:20:10.487Z,99.05
2019-04-26T11:21:09.784Z,98.57
2019-04-26T11:22:09.810Z,98.57
2019-04-26T11:23:11.836Z,96.75
2019-04-26T11:24:09.927Z,97.08
2019-04-26T11:25:09.909Z,96.89
2019-04-26T11:26:09.941Z,95.46
2019-04-26T11:27:11.180Z,94.98
2019-04-26T11:28:10.005Z,94.93
2019-04-26T11:29:10.039Z,95.31
2019-04-26T11:30:15.574Z,94.07
2019-04-26T11:31:10.106Z,93.21
2019-04-26T11:32:10.138Z,93.21
2019-04-26T11:33:10.970Z,95.61
2019-04-26T11:34:10.201Z,96.18
2019-04-26T11:35:10.234Z,94.17
2019-04-26T11:36:10.435Z,94.79
2019-04-26T11:37:13.381Z,93.07
2019-04-26T11:38:10.344Z,92.73
2019-04-26T11:39:10.367Z,91.58
2019-04-26T11:40:14.396Z,92.25
2019-04-26T11:41:10.441Z,92.63
2019-04-26T11:42:11.807Z,93.12
2019-04-26T11:43:10.499Z,93.26
2019-04-26T11:44:10.534Z,93.16
2019-04-26T11:45:14.492Z,91.15
2019-04-26T11:46:10.607Z,90.72
2019-04-26T11:47:10.632Z,89.81
2019-04-26T11:48:10.665Z,90.00
2019-04-26T11:49:10.699Z,90.19
2019-04-26T11:50:12.458Z,90.58
2019-04-26T11:51:10.766Z,92.01
2019-04-26T11:52:10.798Z,90.86
2019-04-26T11:53:11.280Z,90.77
2019-04-26T11:54:10.866Z,90.67
2019-04-26T11:55:10.900Z,89.72
2019-04-26T11:56:10.955Z,89.14
2019-04-26T11:57:11.975Z,89.00
2019-04-26T11:58:10.999Z,88.95
2019-04-26T11:59:11.033Z,88.47
2019-04-26T12:00:11.067Z,88.76
2019-04-26T12:01:11.116Z,88.95
2019-04-26T12:02:12.362Z,87.90
2019-04-26T12:03:14.242Z,86.79
2019-04-26T12:05:11.801Z,87.84
2019-04-26T12:07:11.505Z,85.88
2019-04-26T12:08:11.360Z,86.93
2019-04-26T12:09:15.000Z,86.12
2019-04-26T12:10:11.633Z,86.41
2019-04-26T12:11:18.239Z,86.21
2019-04-26T12:13:11.542Z,87.02
2019-04-26T12:14:20.149Z,87.17
2019-04-26T12:17:11.848Z,87.51
2019-04-26T12:18:11.728Z,87.51
2019-04-26T12:19:14.284Z,89.90
2019-04-26T12:21:11.802Z,88.66
2019-04-26T12:23:13.601Z,90.19
2019-04-26T12:24:11.881Z,89.37
2019-04-26T12:25:11.916Z,89.95
2019-04-26T12:26:11.950Z,89.09
2019-04-26T12:27:12.023Z,88.81
2019-04-26T12:28:12.048Z,89.43
2019-04-26T12:29:14.650Z,90.29
2019-04-26T12:30:12.086Z,90.58
2019-04-26T12:31:15.056Z,89.37
2019-04-26T12:32:12.154Z,89.86
2019-04-26T12:33:12.192Z,89.57
2019-04-26T12:34:14.201Z,89.57
2019-04-26T12:35:12.256Z,88.90
2019-04-26T12:36:13.333Z,88.32
2019-04-26T12:37:18.209Z,88.42
2019-04-26T12:38:12.382Z,88.32
2019-04-26T12:39:12.426Z,89.23
2019-04-26T12:40:12.463Z,91.44
2019-04-26T12:41:12.461Z,89.62
2019-04-26T12:42:13.784Z,89.57
2019-04-26T12:43:15.480Z,90.91
2019-04-26T12:44:12.567Z,90.62
2019-04-26T12:45:16.664Z,89.86
2019-04-26T12:46:14.198Z,89.95
2019-04-26T12:47:12.668Z,89.90
2019-04-26T12:48:15.658Z,89.04
2019-04-26T12:49:12.739Z,89.32
2019-04-26T12:50:12.792Z,89.90
2019-04-26T12:52:13.148Z,88.84
2019-04-26T12:53:13.305Z,88.75
2019-04-26T12:55:13.914Z,89.32
2019-04-26T12:56:12.983Z,88.65
2019-04-26T12:57:13.012Z,88.94
2019-04-26T12:58:15.118Z,89.23
2019-04-26T12:59:15.680Z,89.23
2019-04-26T13:00:13.113Z,88.75
2019-04-26T13:01:13.481Z,89.09
2019-04-26T13:02:16.664Z,88.51
2019-04-26T13:03:20.048Z,89.28
2019-04-26T13:04:13.249Z,89.37
2019-04-26T13:05:14.605Z,91.39
2019-04-26T13:06:13.419Z,91.10
2019-04-26T13:07:23.593Z,89.66
2019-04-26T13:08:16.968Z,90.53
2019-04-26T13:09:13.421Z,90.53
2019-04-26T13:10:13.470Z,90.05
2019-04-26T13:11:15.190Z,90.05
2019-04-26T13:12:13.523Z,89.66
2019-04-26T13:13:13.557Z,87.46
2019-04-26T13:14:16.095Z,88.84
2019-04-26T13:15:16.797Z,88.94
2019-04-26T13:16:13.659Z,87.70
2019-04-26T13:17:13.709Z,87.65
2019-04-26T13:18:13.732Z,87.84
2019-04-26T13:19:15.998Z,87.65
2019-04-26T13:20:13.795Z,88.17
2019-04-26T13:21:13.830Z,88.17
2019-04-26T13:22:13.864Z,86.45
2019-04-26T13:23:13.899Z,85.30
2019-04-26T13:24:13.943Z,87.21